aviador You're here:

CBBC Decoded Metar

BELLA BELLA in BC, CANADA
Report Time2018-06-20 17:00:00
UTC Time2018-06-20 17:25:43
Flight Rules vfr VFR
Wind130° at 04 kt
W.Decomp.*RWY 13: 3.7 kt HW 1.4 kt LCW
W.Rank130° ranks 3
Current wind is below 130° avg. (5.2)
Visibility9999 m
Phenomena:N/A
Clouds:Scattered 006 Hf
Expected CloudBase > 800 ft AGL from Temp-Dew spread
CeilingNone
Temp15°C (ISA 0)
Dew Point13°C (88% RH)
AAT14.5°C
QNH1016 hPa
Density Alt272 ft
Elevation141 ft
Report Wrong Elevation
Raw Report
METAR CBBC 201700Z AUTO 13004KT 090V230 9SM SCT006 15/13 A2999 RMK
SLP158=

Extra information for CBBC:More info

Metar Taf Metar & Taf Last 4 Metars F.Rules Stats Wind Profile Meteogram Temp Stats Airport Information Weather charts Add Link Nearby VenuesMetar ALERT Operation Metar Decoded Social comments